createdAt,value
2022-11-01T00:01:15.655Z,5.82
2022-11-01T00:04:02.790Z,5.53
2022-11-01T00:06:50.386Z,5.85
2022-11-01T00:09:37.464Z,6.20
2022-11-01T00:12:24.565Z,6.28
2022-11-01T00:15:14.735Z,6.75
2022-11-01T00:18:02.262Z,6.88
2022-11-01T00:20:49.448Z,7.32
2022-11-01T00:23:37.232Z,7.53
2022-11-01T00:26:25.240Z,8.35
2022-11-01T00:29:12.794Z,7.60
2022-11-01T00:32:02.961Z,8.55
2022-11-01T00:34:50.395Z,8.13
2022-11-01T00:37:37.576Z,8.48
2022-11-01T00:40:24.702Z,8.95
2022-11-01T00:43:14.036Z,7.78
2022-11-01T00:46:01.465Z,7.55
2022-11-01T00:48:48.536Z,8.55
2022-11-01T00:51:35.666Z,8.27
2022-11-01T00:54:22.850Z,8.52
2022-11-01T00:57:12.174Z,7.97
2022-11-01T00:59:59.221Z,8.05
2022-11-01T01:02:46.306Z,8.80
2022-11-01T01:05:34.614Z,7.85
2022-11-01T01:08:22.996Z,7.47
2022-11-01T01:11:10.111Z,7.88
2022-11-01T01:13:57.298Z,7.53
2022-11-01T01:16:44.408Z,7.85
2022-11-01T01:19:32.248Z,8.38
2022-11-01T01:22:19.681Z,7.47
2022-11-01T01:25:09.385Z,7.82
2022-11-01T01:27:57.128Z,8.05
2022-11-01T01:30:44.212Z,8.07
2022-11-01T01:33:31.613Z,8.68
2022-11-01T01:36:21.008Z,7.70
2022-11-01T01:39:08.371Z,8.15
2022-11-01T01:41:58.358Z,7.68
2022-11-01T01:44:51.653Z,7.80
2022-11-01T01:47:40.478Z,7.85
2022-11-01T01:50:34.533Z,8.63
2022-11-01T01:53:36.937Z,7.07
2022-11-01T01:56:36.753Z,7.13
2022-11-01T01:59:23.908Z,7.60
2022-11-01T02:02:12.481Z,8.05
2022-11-01T02:05:08.973Z,7.88
2022-11-01T02:08:00.072Z,8.55
2022-11-01T02:10:50.024Z,8.35
2022-11-01T02:13:38.098Z,6.88
2022-11-01T02:16:40.477Z,7.20
2022-11-01T02:20:08.508Z,6.75
2022-11-01T02:23:16.704Z,7.03
2022-11-01T02:26:17.352Z,6.85
2022-11-01T02:29:13.193Z,6.95
2022-11-01T02:32:12.585Z,7.20
2022-11-01T02:35:22.823Z,6.20
2022-11-01T02:38:34.617Z,7.15
2022-11-01T02:41:40.962Z,7.30
2022-11-01T02:44:37.787Z,6.00
2022-11-01T02:47:28.187Z,6.97
2022-11-01T02:50:17.701Z,5.82
2022-11-01T02:53:05.377Z,5.60
2022-11-01T02:55:53.688Z,6.68
2022-11-01T02:58:43.585Z,6.45
2022-11-01T03:01:34.638Z,6.15
2022-11-01T03:04:24.417Z,6.45
2022-11-01T03:07:13.626Z,5.90
2022-11-01T03:10:02.030Z,5.60
2022-11-01T03:13:03.413Z,5.78
2022-11-01T03:16:00.575Z,5.35
2022-11-01T03:19:03.815Z,5.20
2022-11-01T03:22:31.376Z,5.32
2022-11-01T03:25:40.766Z,5.30
2022-11-01T03:28:37.899Z,4.18
2022-11-01T03:31:37.368Z,4.65
2022-11-01T03:34:26.259Z,4.85
2022-11-01T03:37:17.201Z,4.70
2022-11-01T03:40:06.295Z,4.53
2022-11-01T03:42:58.238Z,4.55
2022-11-01T03:45:47.940Z,4.60
2022-11-01T03:48:40.004Z,4.38
2022-11-01T03:51:27.114Z,4.72
2022-11-01T03:54:16.706Z,4.43
2022-11-01T03:57:03.889Z,4.30
2022-11-01T03:59:51.225Z,5.03
2022-11-01T04:02:40.645Z,5.68
2022-11-01T04:05:31.828Z,5.05
2022-11-01T04:08:18.941Z,4.30
2022-11-01T04:11:06.136Z,4.72
2022-11-01T04:14:13.206Z,4.70
2022-11-01T04:17:18.931Z,4.20
2022-11-01T04:20:24.852Z,4.47
2022-11-01T04:23:12.038Z,4.50
2022-11-01T04:25:59.158Z,3.88
2022-11-01T04:28:57.150Z,3.97
2022-11-01T04:31:44.627Z,3.88
2022-11-01T04:34:46.431Z,3.90
2022-11-01T04:37:33.581Z,4.07
2022-11-01T04:40:20.683Z,3.85
2022-11-01T04:43:07.838Z,3.75
2022-11-01T04:45:56.363Z,3.13
2022-11-01T04:48:43.467Z,3.30
2022-11-01T04:51:32.957Z,3.30
2022-11-01T04:54:24.757Z,3.25
2022-11-01T04:57:22.781Z,2.70
2022-11-01T05:00:14.259Z,3.40
2022-11-01T05:03:07.878Z,3.22
2022-11-01T05:06:00.861Z,3.22
2022-11-01T05:08:48.117Z,1.95
2022-11-01T05:11:35.236Z,2.40
2022-11-01T05:14:22.326Z,2.13
2022-11-01T05:17:09.455Z,2.20
2022-11-01T05:19:56.513Z,1.95
2022-11-01T05:22:43.508Z,2.13
2022-11-01T05:25:34.017Z,1.95
2022-11-01T05:28:24.267Z,1.98
2022-11-01T05:31:11.349Z,1.90
2022-11-01T05:33:58.407Z,1.70
2022-11-01T05:36:45.855Z,1.65
2022-11-01T05:39:33.257Z,1.77
2022-11-01T05:42:20.313Z,2.03
2022-11-01T05:45:07.703Z,1.85
2022-11-01T05:47:54.860Z,2.30
2022-11-01T05:50:44.006Z,2.50
2022-11-01T05:53:31.099Z,1.85
2022-11-01T05:56:18.946Z,2.20
2022-11-01T05:59:06.182Z,2.40
2022-11-01T06:01:58.283Z,2.20
2022-11-01T06:04:47.670Z,1.50
2022-11-01T06:07:36.651Z,1.90
2022-11-01T06:10:23.899Z,1.65
2022-11-01T06:13:11.207Z,1.98
2022-11-01T06:16:03.001Z,2.05
2022-11-01T06:18:50.412Z,2.07
2022-11-01T06:21:39.763Z,1.88
2022-11-01T06:24:26.802Z,2.03
2022-11-01T06:27:15.043Z,2.38
2022-11-01T06:30:04.536Z,2.20
2022-11-01T06:32:51.698Z,1.90
2022-11-01T06:35:41.261Z,1.52
2022-11-01T06:38:28.758Z,2.17
2022-11-01T06:41:18.073Z,2.00
2022-11-01T06:44:05.401Z,1.98
2022-11-01T06:46:54.203Z,2.00
2022-11-01T06:49:41.458Z,2.78
2022-11-01T06:52:28.498Z,2.15
2022-11-01T06:55:15.874Z,1.73
2022-11-01T06:58:03.965Z,1.60
2022-11-01T07:00:51.523Z,1.58
2022-11-01T07:03:38.839Z,1.80
2022-11-01T07:06:28.892Z,2.00
2022-11-01T07:09:20.725Z,1.60
2022-11-01T07:12:07.912Z,2.30
2022-11-01T07:14:55.015Z,1.30
2022-11-01T07:17:48.077Z,1.42
2022-11-01T07:20:41.684Z,1.40
2022-11-01T07:23:29.462Z,1.13
2022-11-01T07:26:21.384Z,1.25
2022-11-01T07:29:08.544Z,1.00
2022-11-01T07:31:55.644Z,1.02
2022-11-01T07:34:43.353Z,1.02
2022-11-01T07:37:30.721Z,1.00
2022-11-01T07:40:18.558Z,1.00
2022-11-01T07:43:06.431Z,1.15
2022-11-01T07:49:51.453Z,1.10
2022-11-01T08:21:06.019Z,0.90
2022-11-01T08:53:06.274Z,0.60
2022-11-01T09:00:52.750Z,0.50
2022-11-01T13:01:25.543Z,1.40
2022-11-01T13:13:10.869Z,2.03
2022-11-01T17:37:08.750Z,2.20
2022-11-01T17:39:56.255Z,1.73
2022-11-01T17:42:45.869Z,2.22
2022-11-01T17:45:49.631Z,2.45
2022-11-01T17:48:55.799Z,1.98
2022-11-01T17:51:47.539Z,2.50
2022-11-01T17:54:38.280Z,1.80
2022-11-01T17:57:29.159Z,2.00
2022-11-01T18:00:17.457Z,2.15
2022-11-01T18:03:15.380Z,2.03
2022-11-01T18:06:14.137Z,2.65
2022-11-01T18:09:01.568Z,2.83
2022-11-01T18:11:55.541Z,2.40
2022-11-01T18:15:03.107Z,2.38
2022-11-01T18:18:28.125Z,2.10
2022-11-01T18:21:52.812Z,2.47
2022-11-01T18:24:57.729Z,2.20
2022-11-01T18:27:45.345Z,1.88
2022-11-01T18:30:32.928Z,2.13
2022-11-01T18:33:30.868Z,1.98
2022-11-01T18:36:29.948Z,1.90
2022-11-01T18:39:29.257Z,2.28
2022-11-01T18:42:17.392Z,1.75
2022-11-01T18:45:51.185Z,1.83
2022-11-01T18:48:44.662Z,2.00
2022-11-01T18:51:34.147Z,2.20
2022-11-01T18:54:33.149Z,2.00
2022-11-01T18:57:24.883Z,1.80
2022-11-01T19:00:14.203Z,1.75
2022-11-01T19:03:02.908Z,1.83
2022-11-01T19:05:51.150Z,2.05
2022-11-01T19:08:39.346Z,1.58
2022-11-01T19:11:28.158Z,1.88
2022-11-01T19:14:21.985Z,2.83
2022-11-01T19:17:23.670Z,2.65
2022-11-01T19:20:29.182Z,2.05
2022-11-01T19:23:22.135Z,1.52
2022-11-01T19:26:39.231Z,1.33
2022-11-01T19:29:30.796Z,1.73
2022-11-01T19:32:22.234Z,1.95
2022-11-01T19:35:18.080Z,1.98
2022-11-01T19:38:16.481Z,1.70
2022-11-01T19:41:04.221Z,2.05
2022-11-01T19:43:52.103Z,1.77
2022-11-01T19:46:39.797Z,2.10
2022-11-01T19:49:30.541Z,1.90
2022-11-01T19:52:30.376Z,1.58
2022-11-01T19:55:36.861Z,2.30
2022-11-01T19:58:45.764Z,2.97
2022-11-01T20:01:47.130Z,1.85
2022-11-01T20:04:37.020Z,1.73
2022-11-01T20:07:28.293Z,2.05
2022-11-01T20:10:16.687Z,2.80
2022-11-01T20:13:04.337Z,3.20
2022-11-01T20:15:52.309Z,3.05
2022-11-01T20:18:44.620Z,3.15
2022-11-01T20:21:32.139Z,2.65
2022-11-01T20:24:19.618Z,2.50
2022-11-01T20:27:07.587Z,2.03
2022-11-01T20:29:57.771Z,2.33
2022-11-01T20:32:45.665Z,2.83
2022-11-01T20:35:33.248Z,2.33
2022-11-01T20:38:21.537Z,2.50
2022-11-01T20:41:13.330Z,2.92
2022-11-01T20:44:03.478Z,1.83
2022-11-01T20:46:51.348Z,3.03
2022-11-01T20:49:39.214Z,2.65
2022-11-01T20:52:44.670Z,2.47
2022-11-01T20:55:35.307Z,2.60
2022-11-01T20:58:22.990Z,2.33
2022-11-01T21:01:18.295Z,2.78
2022-11-01T21:04:13.595Z,4.50
2022-11-01T21:07:04.312Z,2.45
2022-11-01T21:09:57.299Z,3.00
2022-11-01T21:12:47.726Z,2.60
2022-11-01T21:15:39.579Z,2.75
2022-11-01T21:18:43.688Z,2.63
2022-11-01T21:21:47.053Z,2.78
2022-11-01T21:24:44.562Z,3.45
2022-11-01T21:27:34.034Z,5.18
2022-11-01T21:30:21.896Z,5.63
2022-11-01T21:33:38.666Z,5.68
2022-11-01T21:36:31.137Z,5.93
2022-11-01T21:39:34.266Z,6.20
2022-11-01T21:42:28.040Z,5.43
2022-11-01T21:45:34.623Z,4.68
2022-11-01T21:48:30.289Z,3.38
2022-11-01T21:51:17.890Z,2.47
2022-11-01T21:54:05.755Z,2.97
2022-11-01T21:56:53.038Z,2.13
2022-11-01T21:59:48.004Z,2.63
2022-11-01T22:02:35.562Z,2.72
2022-11-01T22:05:34.757Z,2.60
2022-11-01T22:08:24.598Z,2.78
2022-11-01T22:11:13.844Z,3.70
2022-11-01T22:14:01.140Z,3.00
2022-11-01T22:16:50.578Z,2.92
2022-11-01T22:19:37.861Z,3.20
2022-11-01T22:22:25.028Z,3.38
2022-11-01T22:25:12.445Z,4.70
2022-11-01T22:28:02.419Z,4.30
2022-11-01T22:30:50.454Z,4.35
2022-11-01T22:33:38.722Z,4.35
2022-11-01T22:36:29.276Z,4.65
2022-11-01T22:39:22.648Z,4.32
2022-11-01T22:42:18.146Z,3.88
2022-11-01T22:45:16.096Z,3.88
2022-11-01T22:48:15.342Z,4.28
2022-11-01T22:51:03.479Z,4.07
2022-11-01T22:53:54.430Z,3.53
2022-11-01T22:56:45.663Z,4.82
2022-11-01T22:59:35.733Z,4.13
2022-11-01T23:02:29.948Z,4.57
2022-11-01T23:05:25.610Z,4.65
2022-11-01T23:08:28.073Z,4.80
2022-11-01T23:11:42.820Z,5.00
2022-11-01T23:14:37.658Z,5.18
2022-11-01T23:17:47.921Z,5.55
2022-11-01T23:20:40.234Z,6.13
2022-11-01T23:23:27.924Z,5.90
2022-11-01T23:26:17.624Z,6.93
2022-11-01T23:29:04.968Z,6.00
2022-11-01T23:31:52.539Z,5.68
2022-11-01T23:34:40.355Z,6.05
2022-11-01T23:37:27.505Z,5.65
2022-11-01T23:40:21.980Z,5.60
2022-11-01T23:43:21.795Z,5.80
2022-11-01T23:46:12.309Z,5.53
2022-11-01T23:49:03.335Z,6.07
2022-11-01T23:51:54.124Z,6.60
2022-11-01T23:54:43.082Z,6.70
2022-11-01T23:57:30.815Z,7.65
